createdAt,value
2019-03-29T00:04:52.969Z,101429.00
2019-03-29T00:15:36.791Z,101454.00
2019-03-29T00:26:20.947Z,101463.00
2019-03-29T00:37:00.609Z,101498.00
2019-03-29T00:47:41.335Z,101519.00
2019-03-29T00:58:22.854Z,101532.00
2019-03-29T01:09:05.248Z,101541.00
2019-03-29T01:19:48.195Z,101556.00
2019-03-29T01:30:28.039Z,101560.00
2019-03-29T01:41:12.559Z,101585.00
2019-03-29T01:51:56.753Z,101584.00
2019-03-29T02:02:41.653Z,101629.00
2019-03-29T02:13:23.020Z,101621.00
2019-03-29T02:24:06.852Z,101631.00
2019-03-29T02:34:51.716Z,101649.00
2019-03-29T02:45:36.468Z,101646.00
2019-03-29T02:56:12.404Z,101640.00
2019-03-29T03:06:55.420Z,101675.00
2019-03-29T03:17:37.038Z,101673.00
2019-03-29T03:28:18.136Z,101690.00
2019-03-29T03:39:02.574Z,101688.00
2019-03-29T03:49:45.718Z,101705.00
2019-03-29T04:00:31.358Z,101719.00
2019-03-29T04:11:12.947Z,101728.00
2019-03-29T04:21:56.703Z,101743.00
2019-03-29T04:32:42.009Z,101735.00
2019-03-29T04:43:25.580Z,101750.00
2019-03-29T04:54:09.726Z,101752.00
2019-03-29T05:04:53.935Z,101762.00
2019-03-29T05:15:37.599Z,101779.00
2019-03-29T05:26:18.851Z,101768.00
2019-03-29T05:37:01.331Z,101776.00
2019-03-29T05:47:42.284Z,101769.00
2019-03-29T05:58:19.858Z,101740.00
2019-03-29T06:09:03.456Z,101696.00
2019-03-29T06:19:45.255Z,101577.00
2019-03-29T06:30:29.228Z,101588.00
2019-03-29T06:41:13.113Z,101535.00
2019-03-29T06:51:57.842Z,101469.00
2019-03-29T07:02:41.044Z,101392.00
2019-03-29T07:13:23.245Z,101310.00
2019-03-29T07:24:06.981Z,101196.00
2019-03-29T07:34:51.527Z,101072.00
2019-03-29T07:45:34.457Z,100957.00
2019-03-29T07:56:18.671Z,100852.00
2019-03-29T08:07:02.827Z,100734.00
2019-03-29T08:17:47.790Z,100650.00
2019-03-29T08:28:30.946Z,100582.00
2019-03-29T08:39:27.352Z,100444.00
2019-03-29T08:49:55.539Z,100361.00
2019-03-29T09:00:39.987Z,100190.00
2019-03-29T09:11:23.457Z,100081.00
2019-03-29T09:22:08.638Z,99970.00
2019-03-29T09:32:52.731Z,99869.00
2019-03-29T09:43:33.408Z,99810.00
2019-03-29T09:54:20.383Z,99716.00
2019-03-29T10:05:01.899Z,99653.00
2019-03-29T10:15:46.090Z,99505.00
2019-03-29T10:26:32.547Z,99468.00
2019-03-29T10:37:14.404Z,99398.00
2019-03-29T10:47:58.400Z,99337.00
2019-03-29T10:58:44.712Z,99271.00
2019-03-29T11:09:19.503Z,99245.00
2019-03-29T11:20:00.408Z,99155.00
2019-03-29T11:30:43.074Z,99053.00
2019-03-29T11:41:17.329Z,99054.00
2019-03-29T11:51:58.211Z,98978.00
2019-03-29T12:02:38.742Z,98905.00
2019-03-29T12:13:10.814Z,98813.00
2019-03-29T12:23:52.214Z,98730.00
2019-03-29T12:34:30.573Z,98676.00
2019-03-29T12:45:11.183Z,98637.00
2019-03-29T12:55:49.435Z,98637.00
2019-03-29T13:06:34.170Z,98489.00
2019-03-29T13:17:14.908Z,98526.00
2019-03-29T13:27:59.715Z,98450.00
2019-03-29T13:38:40.587Z,98534.00
2019-03-29T13:49:22.112Z,98594.00
2019-03-29T14:00:07.132Z,98370.00
2019-03-29T14:10:47.082Z,98455.00
2019-03-29T14:21:31.683Z,98311.00
2019-03-29T14:32:11.203Z,98307.00
2019-03-29T14:42:46.670Z,98311.00
2019-03-29T14:53:27.400Z,98221.00
2019-03-29T15:04:09.677Z,98170.00
2019-03-29T15:15:05.256Z,98209.00
2019-03-29T15:25:32.053Z,98202.00
2019-03-29T15:36:10.595Z,98093.00
2019-03-29T15:46:54.141Z,98230.00
2019-03-29T15:57:37.936Z,98197.00
2019-03-29T16:08:23.169Z,98140.00
2019-03-29T16:19:08.739Z,98197.00
2019-03-29T16:29:52.772Z,98215.00
2019-03-29T16:40:35.107Z,98215.00
2019-03-29T16:51:11.583Z,98165.00
2019-03-29T17:01:53.967Z,98285.00
2019-03-29T17:12:38.004Z,98274.00
2019-03-29T17:23:12.144Z,98264.00
2019-03-29T17:33:52.533Z,98315.00
2019-03-29T17:44:25.916Z,98453.00
2019-03-29T17:55:05.072Z,98624.00
2019-03-29T18:05:44.352Z,98758.00
2019-03-29T18:16:30.982Z,98847.00
2019-03-29T18:27:06.738Z,98947.00
2019-03-29T18:37:45.048Z,99052.00
2019-03-29T18:48:23.580Z,99112.00
2019-03-29T18:59:01.367Z,99187.00
2019-03-29T19:09:38.372Z,99291.00
2019-03-29T19:20:27.281Z,99369.00
2019-03-29T19:31:01.036Z,99435.00
2019-03-29T19:41:41.579Z,99530.00
2019-03-29T19:52:24.984Z,99597.00
2019-03-29T20:03:03.916Z,99668.00
2019-03-29T20:13:45.053Z,99738.00
2019-03-29T20:24:27.504Z,99770.00
2019-03-29T20:35:09.171Z,99834.00
2019-03-29T20:45:50.087Z,99846.00
2019-03-29T20:56:33.487Z,99884.00
2019-03-29T21:07:14.049Z,99937.00
2019-03-29T21:17:57.118Z,99970.00
2019-03-29T21:28:35.215Z,100023.00
2019-03-29T21:39:12.731Z,100062.00
2019-03-29T21:49:51.775Z,100072.00
2019-03-29T22:00:25.307Z,100101.00
2019-03-29T22:11:03.532Z,100139.00
2019-03-29T22:21:38.402Z,100181.00
2019-03-29T22:42:54.238Z,100257.00
2019-03-29T22:53:32.300Z,100287.00
2019-03-29T23:04:06.780Z,100291.00
2019-03-29T23:14:47.566Z,100313.00
2019-03-29T23:25:19.688Z,100352.00
2019-03-29T23:35:53.798Z,100377.00
2019-03-29T23:46:34.236Z,100394.00
2019-03-29T23:57:15.866Z,100426.00
